Lansing, MI (48919)

9:41 PM EST on December 10, 2016 (GMT -0500)
Shaw Estates | | Change Station
Active Advisory: Winter Weather Advisory

Elev 869 ft 42.73 °N, 84.54 °W | Updated 1 minute ago

Overcast
Overcast
23.0 °F
Feels Like 23 °F
N
0.0
Wind Variable Wind from South
Gusts 0.0 mph

Today
High -- | Low -- °F
--% Chance of Precip.
Yesterday
High -- | Low -- °F
Precip. -- in
Pressure 30.37 in
Visibility 9.0 miles
Clouds Few 1700 ft
Scattered Clouds 2300 ft
Overcast 4200 ft
Windchill 23 °F
Dew Point 15 °F
Humidity 70%
Rainfall 0.00 in
Snow Depth Not available.
7:58 AM 5:04 PM
Waxing Gibbous, 88% visible
SPECI KLAN 110210Z 21009KT 9SM FEW017 SCT023 OVC042 M05/M08 A3037 RMK AO2 T10501083
Pressure 30.37 in
Visibility 9.0 miles
Clouds Few 1700 ft
Scattered Clouds 2300 ft
Overcast 4200 ft
Windchill 23 °F
Dew Point 15 °F
Humidity 70%
Rainfall 0.00 in
Snow Depth Not available.
7:58 AM 5:04 PM
Waxing Gibbous, 88% visible
SPECI KLAN 110210Z 21009KT 9SM FEW017 SCT023 OVC042 M05/M08 A3037 RMK AO2 T10501083

10-Day Weather Forecast

Almanac

Astronomy

Dec. 10, 2016 Rise Set
Actual Time
Civil Twilight
Nautical Twilight
Astronomical Twilight
Moon
Length of Visible Light
Length of Day
Tomorrow will be .
, % of the Moon is Illuminated

Today's Extremes

State Highs State Lows

Community

WunderPhotos

Upload Photos

1,956,692 photos uploaded!

WunderBlog® & News

Nearby

Air Quality

  Air Quality AQ Index Pollutant
Not available.

Snow Depth

Station Depth Elevation

Earthquake Activity

City Distance Mag. Time & Date
Minimum magnitude displayed is 2.5.

Coastal Water Temperatures

Place Temperature

Stations

Nearby Weather Stations

Station Location Temp. Windchill Dew Point Humidity Wind Precip. Elev Updated Type
                   

Watches & Warnings

Winter Weather Advisory
Issued: 3:26 PM EST Dec. 10, 2016 – National Weather Service

... Winter Weather Advisory remains in effect from 10 PM this
evening to 4 am EST Monday...

Hazardous weather...

* snow tonight through Sunday and Sunday evening before tapering
   off early Monday morning.

* Heaviest snow will fall Sunday morning and afternoon.

* Total accumulations 5 to 9 inches. Locally higher amounts
   possible.

Impacts...

* roads will become snow and slush covered and hazardous.

* Commuting times will be increased.

Precautionary/preparedness actions...

* the Michigan Department of Transportation reminds motorists
   to adjust speeds based on the conditions... and to take it
   slow in ice and snow.

* Weather preparedness information is available on line at
   www.Ready.Gov/winter.